Weather at Oceanside Municipal Airport

Public forecast

Using degrees Fahrenheit for public forecast. Weather courtesy of forecast.io.

Current aviation weather report (METAR) for Oceanside Municipal Airport

Retrieved 2021/07/26 16:16 UTC (18 seconds ago):

KOKB 261616Z AUTO 27003KT 7SM SCT009 OVC013 A2993 RMK AO2

Closest aviation forecast (TAF) to Oceanside Municipal Airport

Closest forecast is Mc Clellan-Palomar Airport, 6.5 nm (12.1 km) SE. Retrieved 2021/07/26 12:42 UTC (4 hours ago):

TAF KCRQ 261139Z 2612/2712 VRB05KT P6SM VCSH SCT015 OVC100 TEMPO 2612/2615 5SM -SHRA BKN012 FM261900 25007KT P6SM SCT015 BKN120 FM270400 25002KT P6SM OVC015